Aviation Digital Data Service (ADDS)

Output produced by METARs form (1708 UTC 24 April 2017)
found at http://www.aviationweather.gov/adds/metars/
 
HTAR 241500Z 12010KT 9999 FEW028 BKN350 24/18 Q1017
HTDA 241400Z 13012KT 9999 FEW027 31/25 Q1012 NOSIG
TAF HTDA 241100Z 2412/2518 13010KT 9999 SCT025 FEW026CB 
     TEMPO 2412/2415 TSRA BKN022 FEW023CB 
     BECMG 2416/2419 19005KT NSW SCT018 
     TEMPO 2506/2510 TSRA 15010KT BKN015 FEW016CB BKN070
       
HTDO 241600Z 10006KT 9999 FEW024 26/17 Q1017 NOSIG
HTDO 241100Z 2412/2512 09005KT 9999 BKN038 FEW040CB 
     BECMG 2420/2423 SCT022
       
HTIR 241600Z 00000KT 9999 FEW020 22/17 Q1020
HTKJ 241600Z 08008KT 9999 FEW030CB BKN210 2720 Q1014 NOSIG
TAF HTKJ 241100Z 2412/2512 06015KT 9999 SCT032 
     PROB30 
     TEMPO 2421/2500 RA BKN026 SCT080 
     BECMG 2502/2506 00000KT NSC
       
HTMT 241400Z 12011KT 9999 SCT021 FEW022CB 29/24 Q1012
HTMW 241600Z 00000KT 9999 FEW026 FEW027CB 26/19 Q1014 NOSIG
HTMW 241100Z 2412/2512 28010KT 9999 SCT028 FEW029CB SCT120 
     BECMG 2418/2420 00000KT 
     TEMPO 2500/2505 12010KT TS/TSRA BKN019 FEW020CB 
     BECMG 2510/2512 30010KT NSW
       
HTZA 241600Z 13010KT 9999 FEW018 28/22 Q1012 NOSIG
HTZA 240500Z 2406/2506 20010KT 9999 BKN016 FEW018CB 
     BECMG 2410/2412 13010KT SCT020 FEW022CB 
     BECMG 2418/2420 19010KT 
     BECMG 2502/2505 BKN016 FEW018CB